createdAt,value
2018-02-12T00:00:47.420Z,53.0
2018-02-12T00:01:48.808Z,52.6
2018-02-12T00:02:50.174Z,52.9
2018-02-12T00:03:51.551Z,53.2
2018-02-12T00:04:52.959Z,53.2
2018-02-12T00:05:54.332Z,52.9
2018-02-12T00:06:55.701Z,52.5
2018-02-12T00:07:57.065Z,52.6
2018-02-12T00:08:58.427Z,52.6
2018-02-12T00:09:59.865Z,52.9
2018-02-12T00:11:01.235Z,52.7
2018-02-12T00:12:02.597Z,52.7
2018-02-12T00:13:03.988Z,52.6
2018-02-12T00:14:05.362Z,52.6
2018-02-12T00:15:06.718Z,52.7
2018-02-12T00:16:08.138Z,52.7
2018-02-12T00:17:09.510Z,53.0
2018-02-12T00:18:10.911Z,52.7
2018-02-12T00:19:12.312Z,53.1
2018-02-12T00:20:13.674Z,53.0
2018-02-12T00:21:15.051Z,53.2
2018-02-12T00:22:16.434Z,53.3
2018-02-12T00:23:17.805Z,53.3
2018-02-12T00:24:19.175Z,53.2
2018-02-12T00:25:20.545Z,53.2
2018-02-12T00:26:21.922Z,53.2
2018-02-12T00:27:23.265Z,53.1
2018-02-12T00:28:24.645Z,53.2
2018-02-12T00:29:26.034Z,53.2
2018-02-12T00:30:27.400Z,53.4
2018-02-12T00:31:28.755Z,53.1
2018-02-12T00:32:30.122Z,53.3
2018-02-12T00:33:31.538Z,53.1
2018-02-12T00:34:32.899Z,53.1
2018-02-12T00:35:34.264Z,53.3
2018-02-12T00:36:35.622Z,53.4
2018-02-12T00:37:36.976Z,53.2
2018-02-12T00:38:38.403Z,53.5
2018-02-12T00:39:39.774Z,53.4
2018-02-12T00:40:41.132Z,53.3
2018-02-12T00:41:42.628Z,53.3
2018-02-12T00:42:43.987Z,53.2
2018-02-12T00:43:45.350Z,53.3
2018-02-12T00:44:46.720Z,53.3
2018-02-12T00:45:48.089Z,53.1
2018-02-12T00:46:49.452Z,53.1
2018-02-12T00:47:50.810Z,53.1
2018-02-12T00:48:52.178Z,53.2
2018-02-12T00:49:53.621Z,53.1
2018-02-12T00:50:55.003Z,53.2
2018-02-12T00:51:56.342Z,53.3
2018-02-12T00:52:57.785Z,53.3
2018-02-12T00:53:59.117Z,53.2
2018-02-12T00:55:00.502Z,53.1
2018-02-12T00:56:02.611Z,53.2
2018-02-12T00:57:03.956Z,53.1
2018-02-12T00:58:05.352Z,53.3
2018-02-12T00:59:06.777Z,52.9
2018-02-12T01:00:08.137Z,53.1
2018-02-12T01:01:09.577Z,53.1
2018-02-12T01:02:10.986Z,53.1
2018-02-12T01:03:12.354Z,53.2
2018-02-12T01:04:13.736Z,53.4
2018-02-12T01:05:15.118Z,53.0
2018-02-12T01:06:16.515Z,53.0
2018-02-12T01:07:17.897Z,53.2
2018-02-12T01:08:19.283Z,53.1
2018-02-12T01:09:20.659Z,53.3
2018-02-12T01:10:22.026Z,53.3
2018-02-12T01:11:23.413Z,53.4
2018-02-12T01:12:24.794Z,53.3
2018-02-12T01:13:26.179Z,53.1
2018-02-12T01:14:27.560Z,53.1
2018-02-12T01:15:28.955Z,53.2
2018-02-12T01:16:30.390Z,53.2
2018-02-12T01:17:31.757Z,53.3
2018-02-12T01:18:33.126Z,53.3
2018-02-12T01:19:34.513Z,53.1
2018-02-12T01:20:35.882Z,53.2
2018-02-12T01:21:37.273Z,53.1
2018-02-12T01:22:38.652Z,53.2
2018-02-12T01:23:40.023Z,53.0
2018-02-12T01:24:41.404Z,53.6
2018-02-12T01:25:42.789Z,53.1
2018-02-12T01:26:44.184Z,53.5
2018-02-12T01:27:45.549Z,53.2
2018-02-12T01:28:46.907Z,53.2
2018-02-12T01:29:48.265Z,53.5
2018-02-12T01:30:49.644Z,53.3
2018-02-12T01:31:51.026Z,53.5
2018-02-12T01:32:52.393Z,53.2
2018-02-12T01:33:53.768Z,53.1
2018-02-12T01:34:55.141Z,53.1
2018-02-12T01:35:56.516Z,53.2
2018-02-12T01:36:57.886Z,53.1
2018-02-12T01:37:59.297Z,53.2
2018-02-12T01:39:00.701Z,53.1
2018-02-12T01:40:02.067Z,53.4
2018-02-12T01:41:03.462Z,53.2
2018-02-12T01:42:04.825Z,53.4
2018-02-12T01:43:06.223Z,53.1
2018-02-12T01:44:07.579Z,53.1
2018-02-12T01:45:08.959Z,53.2
2018-02-12T01:46:10.358Z,53.0
2018-02-12T01:47:11.707Z,53.0
2018-02-12T01:48:13.116Z,53.2
2018-02-12T01:49:14.487Z,53.1
2018-02-12T01:50:15.898Z,53.1
2018-02-12T01:51:17.253Z,53.1
2018-02-12T01:52:18.610Z,53.1
2018-02-12T01:53:19.971Z,53.2
2018-02-12T01:54:21.342Z,53.1
2018-02-12T01:55:22.696Z,53.1
2018-02-12T01:56:24.075Z,53.4
2018-02-12T01:57:25.451Z,53.1
2018-02-12T01:58:26.818Z,53.2
2018-02-12T01:59:28.198Z,53.3
2018-02-12T02:00:29.595Z,53.2
2018-02-12T02:01:30.965Z,53.1
2018-02-12T02:02:32.331Z,53.0
2018-02-12T02:03:33.689Z,52.8
2018-02-12T02:04:35.101Z,53.0
2018-02-12T02:05:36.484Z,52.7
2018-02-12T02:06:37.863Z,52.8
2018-02-12T02:07:39.261Z,53.2
2018-02-12T02:08:40.612Z,52.6
2018-02-12T02:09:41.983Z,53.0
2018-02-12T02:10:43.330Z,52.7
2018-02-12T02:11:44.695Z,52.6
2018-02-12T02:12:46.066Z,53.0
2018-02-12T02:13:47.454Z,53.2
2018-02-12T02:14:48.835Z,53.1
2018-02-12T02:15:50.292Z,53.0
2018-02-12T02:16:51.677Z,52.8
2018-02-12T02:17:53.033Z,52.8
2018-02-12T02:18:54.404Z,52.9
2018-02-12T02:19:55.892Z,52.7
2018-02-12T02:20:57.290Z,52.7
2018-02-12T02:21:58.678Z,52.6
2018-02-12T02:23:00.042Z,52.7
2018-02-12T02:24:01.417Z,52.6
2018-02-12T02:25:02.795Z,52.7
2018-02-12T02:26:04.145Z,52.6
2018-02-12T02:27:05.522Z,52.7
2018-02-12T02:28:06.892Z,52.8
2018-02-12T02:29:08.257Z,53.0
2018-02-12T02:30:09.622Z,52.9
2018-02-12T02:31:10.983Z,52.6
2018-02-12T02:32:12.342Z,52.7
2018-02-12T02:33:13.734Z,52.6
2018-02-12T02:34:15.087Z,52.7
2018-02-12T02:35:16.509Z,53.0
2018-02-12T02:36:17.874Z,53.0
2018-02-12T02:37:19.242Z,52.7
2018-02-12T02:38:20.661Z,52.7
2018-02-12T02:39:22.023Z,52.7
2018-02-12T02:40:23.520Z,53.0
2018-02-12T02:41:24.892Z,52.6
2018-02-12T02:42:26.289Z,53.0
2018-02-12T02:43:27.668Z,52.7
2018-02-12T02:44:29.052Z,53.0
2018-02-12T02:45:30.405Z,52.7
2018-02-12T02:46:31.769Z,53.0
2018-02-12T02:47:33.241Z,53.0
2018-02-12T02:48:34.646Z,53.0
2018-02-12T02:49:36.010Z,53.0
2018-02-12T02:50:37.380Z,52.8
2018-02-12T02:51:38.793Z,53.0
2018-02-12T02:52:40.201Z,53.0
2018-02-12T02:53:41.585Z,53.0
2018-02-12T02:54:42.982Z,52.7
2018-02-12T02:55:44.333Z,52.7
2018-02-12T02:56:45.703Z,52.9
2018-02-12T02:57:47.062Z,52.7
2018-02-12T02:58:48.426Z,52.7
2018-02-12T02:59:49.816Z,52.6
2018-02-12T03:00:51.193Z,52.7
2018-02-12T03:01:52.555Z,52.7
2018-02-12T03:02:53.959Z,52.7
2018-02-12T03:03:55.322Z,52.7
2018-02-12T03:04:56.738Z,53.0
2018-02-12T03:05:58.107Z,52.7
2018-02-12T03:06:59.498Z,52.7
2018-02-12T03:08:00.878Z,52.7
2018-02-12T03:09:02.228Z,52.7
2018-02-12T03:10:03.605Z,52.7
2018-02-12T03:11:05.049Z,52.9
2018-02-12T03:12:06.420Z,53.0
2018-02-12T03:13:07.775Z,53.0
2018-02-12T03:14:09.237Z,52.7
2018-02-12T03:15:10.604Z,53.0
2018-02-12T03:16:11.996Z,52.7
2018-02-12T03:17:13.349Z,52.6
2018-02-12T03:18:14.745Z,52.7
2018-02-12T03:19:16.156Z,52.7
2018-02-12T03:20:17.613Z,52.9
2018-02-12T03:21:19.054Z,53.0
2018-02-12T03:22:20.464Z,52.6
2018-02-12T03:23:21.860Z,52.7
2018-02-12T03:24:23.318Z,52.6
2018-02-12T03:25:24.828Z,52.9
2018-02-12T03:26:26.319Z,52.7
2018-02-12T03:27:27.778Z,52.7
2018-02-12T03:28:29.161Z,52.7
2018-02-12T03:29:30.562Z,52.6
2018-02-12T03:30:32.018Z,52.7
2018-02-12T03:31:33.536Z,52.7
2018-02-12T03:32:34.886Z,53.0
2018-02-12T03:33:36.408Z,52.7
2018-02-12T03:34:37.871Z,53.4
2018-02-12T03:35:39.265Z,52.9
2018-02-12T03:36:40.788Z,52.7
2018-02-12T03:37:42.256Z,52.8
2018-02-12T03:38:43.724Z,52.8
2018-02-12T03:39:45.108Z,52.7
2018-02-12T03:40:46.606Z,52.8
2018-02-12T03:41:48.061Z,52.6
2018-02-12T03:42:49.455Z,52.7
2018-02-12T03:43:50.870Z,52.7
2018-02-12T03:44:52.393Z,52.7
2018-02-12T03:45:53.789Z,52.7
2018-02-12T03:46:55.204Z,52.6
2018-02-12T03:47:56.610Z,52.9
2018-02-12T03:48:58.080Z,52.6
2018-02-12T03:49:59.599Z,52.8
2018-02-12T03:51:00.996Z,52.6
2018-02-12T03:52:02.496Z,52.8
2018-02-12T03:53:03.931Z,52.9
2018-02-12T03:54:05.336Z,52.7
2018-02-12T03:55:06.739Z,52.7
2018-02-12T03:56:08.234Z,53.0
2018-02-12T03:57:09.621Z,52.7
2018-02-12T03:58:11.120Z,53.1
2018-02-12T03:59:12.638Z,52.7
2018-02-12T04:00:14.068Z,52.6
2018-02-12T04:01:15.457Z,52.7
2018-02-12T04:02:16.922Z,53.1
2018-02-12T04:03:18.435Z,52.6
2018-02-12T04:04:19.818Z,52.5
2018-02-12T04:05:21.229Z,53.0
2018-02-12T04:06:22.754Z,53.4
2018-02-12T04:07:24.832Z,52.7
2018-02-12T04:08:26.184Z,53.1
2018-02-12T04:09:27.583Z,52.7
2018-02-12T04:10:28.958Z,52.7
2018-02-12T04:11:30.343Z,52.6
2018-02-12T04:12:31.775Z,53.1
2018-02-12T04:13:33.256Z,53.1
2018-02-12T04:14:34.638Z,52.7
2018-02-12T04:15:36.013Z,52.8
2018-02-12T04:16:37.467Z,53.0
2018-02-12T04:17:38.839Z,53.1
2018-02-12T04:18:40.222Z,53.1
2018-02-12T04:19:41.694Z,52.7
2018-02-12T04:20:43.073Z,52.8
2018-02-12T04:21:44.521Z,53.0
2018-02-12T04:22:46.013Z,53.0
2018-02-12T04:23:47.441Z,53.1
2018-02-12T04:24:48.841Z,53.0
2018-02-12T04:25:50.309Z,53.1
2018-02-12T04:26:51.716Z,52.9
2018-02-12T04:27:53.141Z,53.0
2018-02-12T04:28:54.546Z,53.0
2018-02-12T04:29:56.037Z,52.5
2018-02-12T04:30:57.475Z,53.1
2018-02-12T04:31:58.914Z,53.1
2018-02-12T04:33:00.321Z,52.8
2018-02-12T04:34:01.737Z,52.9
2018-02-12T04:35:03.140Z,53.0
2018-02-12T04:36:04.526Z,52.8
2018-02-12T04:37:06.019Z,52.7
2018-02-12T04:38:07.507Z,53.1
2018-02-12T04:39:08.988Z,53.1
2018-02-12T04:40:10.440Z,53.0
2018-02-12T04:41:11.997Z,53.1
2018-02-12T04:42:13.464Z,52.7
2018-02-12T04:43:14.888Z,52.7
2018-02-12T04:44:16.452Z,52.7
2018-02-12T04:45:17.967Z,53.0
2018-02-12T04:46:19.379Z,52.7
2018-02-12T04:47:20.804Z,52.6
2018-02-12T04:48:22.233Z,53.3
2018-02-12T04:49:23.692Z,53.1
2018-02-12T04:50:25.152Z,53.1
2018-02-12T04:51:26.635Z,52.7
2018-02-12T04:52:28.141Z,53.2
2018-02-12T04:53:29.604Z,53.1
2018-02-12T04:54:31.034Z,53.3
2018-02-12T04:55:32.431Z,53.1
2018-02-12T04:56:33.854Z,53.2
2018-02-12T04:57:35.338Z,52.9
2018-02-12T04:58:36.784Z,53.2
2018-02-12T04:59:38.297Z,53.3
2018-02-12T05:00:39.808Z,53.3
2018-02-12T05:01:41.251Z,53.2
2018-02-12T05:02:42.695Z,53.2
2018-02-12T05:03:44.115Z,53.2
2018-02-12T05:04:45.526Z,53.2
2018-02-12T05:05:46.963Z,53.2
2018-02-12T05:06:48.481Z,53.2
2018-02-12T05:07:49.897Z,53.2
2018-02-12T05:08:51.408Z,53.2
2018-02-12T05:09:52.847Z,53.1
2018-02-12T05:10:54.306Z,53.2
2018-02-12T05:11:55.732Z,53.1
2018-02-12T05:12:57.234Z,53.3
2018-02-12T05:13:58.686Z,53.1
2018-02-12T05:15:00.144Z,53.2
2018-02-12T05:16:01.516Z,53.2
2018-02-12T05:17:03.062Z,53.2
2018-02-12T05:18:04.531Z,53.2
2018-02-12T05:19:05.908Z,53.2
2018-02-12T05:20:07.376Z,53.2
2018-02-12T05:21:08.791Z,53.1
2018-02-12T05:22:10.217Z,53.2
2018-02-12T05:23:11.657Z,53.2
2018-02-12T05:24:13.145Z,53.1
2018-02-12T05:25:14.676Z,53.1
2018-02-12T05:26:16.126Z,53.2
2018-02-12T05:27:17.503Z,52.9
2018-02-12T05:28:18.991Z,53.1
2018-02-12T05:29:20.471Z,53.0
2018-02-12T05:30:21.921Z,53.1
2018-02-12T05:31:23.379Z,53.2
2018-02-12T05:32:24.875Z,53.0
2018-02-12T05:33:26.292Z,53.2
2018-02-12T05:34:27.680Z,53.1
2018-02-12T05:35:29.112Z,53.0
2018-02-12T05:36:30.528Z,53.1
2018-02-12T05:37:32.035Z,53.2
2018-02-12T05:38:33.549Z,53.1
2018-02-12T05:39:35.013Z,53.1
2018-02-12T05:40:36.393Z,53.1
2018-02-12T05:41:37.866Z,53.2
2018-02-12T05:42:39.233Z,53.1
2018-02-12T05:43:40.771Z,53.1
2018-02-12T05:44:42.207Z,53.0
2018-02-12T05:45:43.698Z,53.2
2018-02-12T05:46:45.100Z,53.1
2018-02-12T05:47:46.534Z,53.1
2018-02-12T05:48:47.993Z,53.1
2018-02-12T05:49:49.507Z,53.2
2018-02-12T05:50:50.962Z,53.0
2018-02-12T05:51:52.419Z,53.0
2018-02-12T05:52:53.955Z,53.3
2018-02-12T05:53:55.330Z,53.2
2018-02-12T05:54:56.851Z,53.2
2018-02-12T05:55:58.234Z,52.9
2018-02-12T05:56:59.649Z,52.7
2018-02-12T05:58:01.128Z,52.9
2018-02-12T05:59:02.531Z,52.7
2018-02-12T06:00:04.020Z,53.1
2018-02-12T06:01:05.588Z,52.7
2018-02-12T06:02:06.983Z,52.7
2018-02-12T06:03:08.419Z,52.6
2018-02-12T06:04:09.886Z,52.6
2018-02-12T06:05:11.357Z,52.6
2018-02-12T06:06:12.809Z,52.5
2018-02-12T06:07:14.216Z,52.6
2018-02-12T06:08:15.692Z,52.9
2018-02-12T06:09:17.141Z,52.9
2018-02-12T06:10:18.643Z,52.5
2018-02-12T06:11:20.080Z,52.6
2018-02-12T06:12:21.570Z,52.8
2018-02-12T06:13:22.959Z,52.7
2018-02-12T06:14:24.390Z,52.5
2018-02-12T06:15:25.813Z,52.8
2018-02-12T06:16:27.330Z,52.8
2018-02-12T06:17:28.748Z,52.8
2018-02-12T06:18:30.185Z,52.6
2018-02-12T06:19:31.706Z,52.9
2018-02-12T06:20:33.172Z,52.6
2018-02-12T06:21:34.573Z,52.8
2018-02-12T06:22:36.080Z,52.8
2018-02-12T06:23:37.511Z,53.1
2018-02-12T06:24:38.969Z,52.9
2018-02-12T06:25:40.462Z,52.9
2018-02-12T06:26:41.906Z,52.4
2018-02-12T06:27:43.369Z,52.7
2018-02-12T06:28:44.877Z,52.4
2018-02-12T06:29:46.385Z,52.0
2018-02-12T06:30:47.764Z,52.3
2018-02-12T06:31:49.170Z,51.8
2018-02-12T06:32:51.491Z,51.3
2018-02-12T06:33:52.857Z,51.5
2018-02-12T06:34:54.266Z,51.2
2018-02-12T06:35:56.241Z,51.3
2018-02-12T06:36:57.662Z,50.6
2018-02-12T06:37:59.042Z,51.2
2018-02-12T06:39:00.409Z,51.3
2018-02-12T06:40:02.720Z,51.0
2018-02-12T06:41:04.075Z,50.9
2018-02-12T06:42:06.225Z,51.2
2018-02-12T06:43:07.592Z,51.0
2018-02-12T06:44:09.511Z,51.1
2018-02-12T06:45:11.566Z,50.8
2018-02-12T06:46:12.961Z,50.3
2018-02-12T06:47:15.199Z,50.3
2018-02-12T06:48:16.616Z,50.3
2018-02-12T06:49:18.673Z,50.4
2018-02-12T06:50:20.108Z,50.2
2018-02-12T06:51:21.466Z,49.9
2018-02-12T06:52:23.567Z,50.6
2018-02-12T06:53:24.203Z,50.2
2018-02-12T06:54:25.571Z,50.3
2018-02-12T06:55:26.945Z,50.1
2018-02-12T06:56:29.742Z,50.3
2018-02-12T06:57:31.113Z,50.4
2018-02-12T06:58:33.214Z,50.5
2018-02-12T06:59:34.684Z,50.5
2018-02-12T07:00:36.065Z,50.0
2018-02-12T07:01:37.468Z,50.0
2018-02-12T07:02:38.838Z,50.0
2018-02-12T07:03:41.277Z,50.0
2018-02-12T07:04:42.641Z,50.2
2018-02-12T07:05:44.026Z,50.0
2018-02-12T07:06:45.403Z,50.1
2018-02-12T07:07:46.768Z,49.8
2018-02-12T07:08:48.206Z,50.0
2018-02-12T07:09:49.722Z,49.8
2018-02-12T07:10:51.111Z,49.8
2018-02-12T07:11:52.497Z,49.5
2018-02-12T07:12:54.650Z,49.8
2018-02-12T07:13:56.046Z,49.5
2018-02-12T07:14:57.412Z,49.5
2018-02-12T07:15:59.443Z,49.8
2018-02-12T07:17:00.805Z,49.2
2018-02-12T07:18:02.177Z,49.2
2018-02-12T07:19:03.566Z,49.5
2018-02-12T07:20:05.360Z,49.5
2018-02-12T07:21:08.383Z,49.6
2018-02-12T07:22:09.756Z,49.5
2018-02-12T07:23:11.113Z,49.4
2018-02-12T07:24:13.088Z,49.7
2018-02-12T07:25:14.555Z,49.7
2018-02-12T07:26:15.956Z,49.6
2018-02-12T07:27:18.284Z,49.6
2018-02-12T07:28:19.682Z,49.5
2018-02-12T07:29:21.823Z,49.4
2018-02-12T07:30:23.210Z,49.7
2018-02-12T07:31:24.568Z,49.5
2018-02-12T07:32:26.573Z,49.6
2018-02-12T07:33:27.959Z,49.4
2018-02-12T07:34:30.298Z,49.6
2018-02-12T07:35:31.674Z,49.4
2018-02-12T07:36:33.041Z,49.6
2018-02-12T07:37:35.200Z,49.5
2018-02-12T07:38:35.752Z,49.5
2018-02-12T07:39:37.122Z,49.4
2018-02-12T07:40:39.658Z,49.3
2018-02-12T07:41:41.031Z,49.6
2018-02-12T07:42:42.424Z,49.7
2018-02-12T07:43:43.798Z,49.6
2018-02-12T07:44:45.186Z,49.7
2018-02-12T07:45:46.578Z,49.3
2018-02-12T07:46:47.943Z,49.5
2018-02-12T07:47:49.855Z,49.6
2018-02-12T07:48:51.361Z,49.2
2018-02-12T07:49:52.735Z,49.7
2018-02-12T07:50:54.865Z,49.2
2018-02-12T07:51:57.157Z,49.5
2018-02-12T07:52:59.171Z,49.5
2018-02-12T07:54:00.561Z,49.3
2018-02-12T07:55:02.847Z,49.6
2018-02-12T07:56:04.761Z,49.5
2018-02-12T07:57:06.867Z,49.2
2018-02-12T07:58:08.260Z,49.3
2018-02-12T07:59:09.640Z,49.3
2018-02-12T08:00:11.002Z,49.4
2018-02-12T08:01:12.376Z,49.6
2018-02-12T08:02:13.755Z,49.1
2018-02-12T08:03:15.120Z,50.0
2018-02-12T08:04:17.150Z,49.9
2018-02-12T08:05:18.511Z,49.9
2018-02-12T08:06:20.840Z,49.8
2018-02-12T08:07:22.211Z,49.1
2018-02-12T08:08:24.406Z,49.2
2018-02-12T08:09:25.768Z,49.7
2018-02-12T08:10:27.162Z,49.3
2018-02-12T08:11:29.226Z,49.2
2018-02-12T08:12:29.994Z,49.2
2018-02-12T08:13:31.368Z,49.5
2018-02-12T08:14:32.731Z,49.5
2018-02-12T08:15:34.719Z,49.5
2018-02-12T08:16:35.448Z,49.5
2018-02-12T08:17:36.813Z,49.5
2018-02-12T08:18:38.179Z,49.4
2018-02-12T08:19:39.547Z,49.5
2018-02-12T08:20:43.670Z,49.4
2018-02-12T08:21:45.035Z,49.6
2018-02-12T08:22:46.418Z,49.2
2018-02-12T08:23:47.775Z,49.6
2018-02-12T08:24:49.154Z,48.8
2018-02-12T08:25:50.597Z,48.7
2018-02-12T08:26:51.993Z,48.9
2018-02-12T08:27:53.323Z,48.5
2018-02-12T08:28:54.815Z,48.8
2018-02-12T08:29:56.176Z,48.2
2018-02-12T08:30:57.747Z,48.7
2018-02-12T08:31:59.126Z,48.4
2018-02-12T08:33:00.491Z,48.7
2018-02-12T08:34:01.869Z,48.6
2018-02-12T08:35:03.266Z,48.9
2018-02-12T08:36:04.698Z,48.9
2018-02-12T08:37:06.085Z,48.9
2018-02-12T08:38:07.458Z,49.4
2018-02-12T08:39:08.868Z,49.5
2018-02-12T08:40:10.272Z,49.5
2018-02-12T08:41:11.655Z,49.6
2018-02-12T08:42:13.037Z,49.3
2018-02-12T08:43:14.394Z,49.7
2018-02-12T08:44:15.768Z,49.8
2018-02-12T08:45:17.174Z,49.7
2018-02-12T08:46:18.538Z,49.7
2018-02-12T08:47:19.904Z,49.6
2018-02-12T08:48:21.268Z,49.6
2018-02-12T08:49:22.646Z,49.8
2018-02-12T08:50:23.998Z,50.0
2018-02-12T08:51:25.363Z,50.1
2018-02-12T08:52:26.844Z,50.2
2018-02-12T08:53:28.202Z,50.1
2018-02-12T08:54:29.550Z,50.0
2018-02-12T08:55:30.916Z,50.1
2018-02-12T08:56:32.371Z,49.9
2018-02-12T08:57:33.739Z,49.9
2018-02-12T08:58:35.106Z,50.0
2018-02-12T08:59:36.494Z,50.0
2018-02-12T09:00:37.877Z,49.6
2018-02-12T09:01:39.252Z,49.7
2018-02-12T09:02:40.620Z,49.7
2018-02-12T09:03:41.989Z,49.7
2018-02-12T09:04:43.434Z,49.6
2018-02-12T09:05:44.816Z,49.5
2018-02-12T09:06:46.254Z,49.4
2018-02-12T09:07:47.634Z,49.6
2018-02-12T09:08:49.009Z,49.8
2018-02-12T09:09:50.390Z,49.7
2018-02-12T09:10:51.790Z,49.4
2018-02-12T09:11:53.150Z,49.8
2018-02-12T09:12:54.544Z,49.7
2018-02-12T09:13:55.895Z,49.5
2018-02-12T09:14:57.274Z,49.7
2018-02-12T09:15:58.643Z,49.5
2018-02-12T09:17:00.034Z,49.6
2018-02-12T09:18:01.508Z,49.6
2018-02-12T09:19:02.974Z,49.2
2018-02-12T09:20:04.559Z,49.6
2018-02-12T09:21:05.946Z,49.7
2018-02-12T09:22:07.307Z,49.6
2018-02-12T09:23:08.675Z,49.6
2018-02-12T09:24:10.117Z,49.4
2018-02-12T09:25:11.474Z,49.5
2018-02-12T09:26:12.845Z,49.4
2018-02-12T09:27:14.927Z,49.0
2018-02-12T09:28:16.286Z,49.0
2018-02-12T09:29:17.657Z,49.2
2018-02-12T09:30:19.034Z,48.9
2018-02-12T09:31:20.507Z,48.9
2018-02-12T09:32:21.851Z,49.0
2018-02-12T09:33:23.364Z,49.0
2018-02-12T09:34:24.743Z,48.7
2018-02-12T09:35:26.100Z,48.7
2018-02-12T09:36:27.502Z,48.8
2018-02-12T09:37:28.862Z,48.7
2018-02-12T09:38:30.242Z,48.7
2018-02-12T09:39:31.701Z,48.9
2018-02-12T09:40:33.106Z,48.8
2018-02-12T09:41:34.619Z,48.7
2018-02-12T09:42:35.972Z,48.6
2018-02-12T09:43:37.365Z,48.7
2018-02-12T09:44:38.773Z,48.7
2018-02-12T09:45:40.142Z,48.5
2018-02-12T09:46:41.610Z,48.6
2018-02-12T09:47:43.099Z,48.4
2018-02-12T09:48:44.461Z,48.4
2018-02-12T09:49:45.920Z,48.6
2018-02-12T09:50:47.322Z,48.7
2018-02-12T09:51:48.696Z,48.7
2018-02-12T09:52:50.161Z,48.9
2018-02-12T09:53:51.531Z,48.9
2018-02-12T09:54:52.924Z,48.9
2018-02-12T09:55:54.279Z,48.7
2018-02-12T09:56:55.656Z,48.8
2018-02-12T09:57:57.131Z,48.8
2018-02-12T09:58:58.626Z,48.7
2018-02-12T10:00:00.116Z,48.7
2018-02-12T10:01:01.519Z,48.7
2018-02-12T10:02:02.878Z,48.8
2018-02-12T10:03:04.334Z,48.5
2018-02-12T10:04:05.740Z,48.7
2018-02-12T10:05:07.140Z,48.7
2018-02-12T10:06:08.482Z,48.4
2018-02-12T10:07:09.871Z,48.2
2018-02-12T10:08:11.260Z,48.4
2018-02-12T10:09:12.628Z,48.4
2018-02-12T10:10:14.070Z,48.4
2018-02-12T10:11:15.443Z,48.8
2018-02-12T10:12:16.887Z,48.6
2018-02-12T10:13:18.271Z,48.5
2018-02-12T10:14:19.645Z,48.6
2018-02-12T10:15:21.025Z,48.6
2018-02-12T10:16:22.391Z,48.6
2018-02-12T10:17:23.765Z,48.4
2018-02-12T10:18:25.156Z,48.6
2018-02-12T10:19:26.620Z,48.4
2018-02-12T10:20:28.022Z,48.3
2018-02-12T10:21:29.392Z,48.8
2018-02-12T10:22:30.830Z,48.8
2018-02-12T10:23:32.218Z,48.4
2018-02-12T10:24:33.647Z,48.4
2018-02-12T10:25:35.663Z,48.4
2018-02-12T10:26:37.119Z,48.4
2018-02-12T10:27:38.513Z,48.4
2018-02-12T10:28:39.902Z,48.4
2018-02-12T10:29:41.272Z,48.7
2018-02-12T10:30:42.653Z,48.5
2018-02-12T10:31:44.023Z,48.6
2018-02-12T10:32:45.423Z,48.6
2018-02-12T10:33:46.973Z,48.7
2018-02-12T10:34:48.378Z,48.8
2018-02-12T10:35:51.450Z,48.8
2018-02-12T10:36:52.852Z,48.6
2018-02-12T10:37:54.284Z,48.7
2018-02-12T10:38:55.667Z,48.7
2018-02-12T10:39:57.122Z,48.7
2018-02-12T10:40:58.592Z,48.8
2018-02-12T10:42:00.091Z,48.6
2018-02-12T10:43:01.486Z,48.7
2018-02-12T10:44:02.852Z,48.6
2018-02-12T10:45:04.231Z,48.9
2018-02-12T10:46:05.601Z,48.5
2018-02-12T10:47:06.979Z,48.7
2018-02-12T10:48:08.343Z,48.5
2018-02-12T10:49:09.714Z,48.4
2018-02-12T10:50:11.092Z,48.5
2018-02-12T10:51:12.554Z,48.3
2018-02-12T10:52:13.952Z,48.6
2018-02-12T10:53:15.339Z,48.6
2018-02-12T10:54:16.744Z,48.7
2018-02-12T10:55:18.101Z,48.3
2018-02-12T10:56:19.470Z,48.4
2018-02-12T10:57:20.959Z,48.6
2018-02-12T10:58:23.090Z,48.4
2018-02-12T10:59:24.474Z,48.4
2018-02-12T11:00:25.876Z,48.5
2018-02-12T11:01:27.325Z,48.4
2018-02-12T11:02:28.689Z,48.4
2018-02-12T11:03:30.050Z,48.4
2018-02-12T11:04:32.933Z,48.4
2018-02-12T11:05:34.838Z,48.3
2018-02-12T11:06:37.896Z,48.2
2018-02-12T11:07:39.297Z,48.2
2018-02-12T11:08:40.657Z,48.2
2018-02-12T11:09:42.024Z,48.4
2018-02-12T11:10:43.382Z,48.4
2018-02-12T11:11:44.791Z,48.3
2018-02-12T11:12:46.174Z,48.1
2018-02-12T11:13:47.530Z,48.2
2018-02-12T11:14:48.996Z,48.5
2018-02-12T11:15:50.452Z,48.4
2018-02-12T11:16:51.903Z,48.4
2018-02-12T11:17:53.527Z,48.6
2018-02-12T11:18:54.885Z,48.5
2018-02-12T11:19:56.265Z,48.3
2018-02-12T11:20:57.618Z,48.4
2018-02-12T11:21:59.097Z,48.3
2018-02-12T11:23:00.500Z,48.2
2018-02-12T11:24:02.843Z,48.2
2018-02-12T11:25:04.424Z,48.4
2018-02-12T11:26:05.832Z,48.4
2018-02-12T11:27:07.313Z,48.5
2018-02-12T11:28:08.814Z,48.3
2018-02-12T11:29:10.174Z,48.5
2018-02-12T11:30:11.611Z,48.4
2018-02-12T11:31:13.120Z,48.4
2018-02-12T11:32:14.561Z,48.4
2018-02-12T11:33:16.213Z,48.2
2018-02-12T11:34:17.952Z,48.1
2018-02-12T11:35:19.373Z,48.4
2018-02-12T11:36:20.756Z,48.2
2018-02-12T11:37:22.148Z,48.5
2018-02-12T11:38:23.533Z,48.3
2018-02-12T11:39:24.972Z,48.4
2018-02-12T11:40:26.345Z,48.2
2018-02-12T11:41:27.730Z,48.2
2018-02-12T11:42:29.118Z,48.4
2018-02-12T11:43:30.483Z,48.3
2018-02-12T11:44:31.893Z,48.6
2018-02-12T11:45:33.315Z,48.7
2018-02-12T11:46:34.686Z,48.4
2018-02-12T11:47:36.122Z,48.3
2018-02-12T11:48:37.572Z,48.4
2018-02-12T11:49:38.989Z,48.3
2018-02-12T11:50:40.374Z,48.3
2018-02-12T11:51:41.833Z,48.4
2018-02-12T11:52:43.234Z,48.5
2018-02-12T11:53:44.611Z,48.4
2018-02-12T11:54:46.016Z,48.4
2018-02-12T11:55:47.381Z,48.3
2018-02-12T11:56:48.760Z,48.4
2018-02-12T11:57:50.788Z,48.1
2018-02-12T11:58:52.161Z,48.6
2018-02-12T11:59:53.632Z,48.5
2018-02-12T12:00:54.991Z,48.5
2018-02-12T12:01:56.394Z,48.3
2018-02-12T12:02:57.778Z,48.4
2018-02-12T12:03:59.266Z,48.4
2018-02-12T12:05:00.728Z,48.5
2018-02-12T12:06:02.106Z,48.4
2018-02-12T12:07:03.475Z,48.0
2018-02-12T12:08:05.642Z,48.2
2018-02-12T12:09:07.028Z,47.1
2018-02-12T12:10:08.441Z,46.8
2018-02-12T12:11:09.792Z,45.3
2018-02-12T12:12:11.154Z,43.7
2018-02-12T12:13:12.538Z,42.6
2018-02-12T12:14:13.909Z,41.6
2018-02-12T12:15:15.297Z,40.9
2018-02-12T12:16:16.704Z,40.4
2018-02-12T12:17:18.178Z,41.1
2018-02-12T12:18:19.542Z,43.5
2018-02-12T12:19:20.945Z,43.6
2018-02-12T12:20:22.330Z,41.9
2018-02-12T12:21:23.721Z,42.8
2018-02-12T12:22:25.125Z,44.8
2018-02-12T12:23:26.514Z,46.5
2018-02-12T12:24:27.873Z,47.5
2018-02-12T12:25:29.250Z,48.0
2018-02-12T12:26:30.611Z,48.2
2018-02-12T12:27:32.056Z,48.0
2018-02-12T12:28:33.421Z,48.3
2018-02-12T12:29:34.794Z,48.2
2018-02-12T12:30:36.161Z,48.3
2018-02-12T12:31:37.566Z,48.3
2018-02-12T12:32:38.895Z,47.9
2018-02-12T12:33:40.281Z,48.0
2018-02-12T12:34:41.652Z,48.0
2018-02-12T12:35:43.111Z,48.2
2018-02-12T12:36:44.508Z,48.4
2018-02-12T12:37:45.881Z,48.1
2018-02-12T12:38:47.304Z,47.8
2018-02-12T12:39:48.657Z,48.2
2018-02-12T12:40:50.060Z,48.2
2018-02-12T12:41:51.425Z,48.3
2018-02-12T12:42:52.820Z,48.0
2018-02-12T12:43:54.243Z,48.1
2018-02-12T12:44:55.615Z,48.3
2018-02-12T12:45:57.027Z,48.4
2018-02-12T12:46:58.410Z,48.1
2018-02-12T12:47:59.780Z,48.1
2018-02-12T12:49:01.214Z,48.2
2018-02-12T12:50:02.753Z,48.4
2018-02-12T12:51:04.121Z,48.2
2018-02-12T12:52:05.523Z,48.3
2018-02-12T12:53:06.913Z,48.2
2018-02-12T12:54:08.273Z,48.3
2018-02-12T12:55:09.735Z,48.3
2018-02-12T12:56:11.187Z,48.3
2018-02-12T12:57:13.270Z,48.4
2018-02-12T12:58:14.632Z,48.4
2018-02-12T12:59:16.057Z,48.4
2018-02-12T13:00:17.624Z,48.4
2018-02-12T13:01:19.027Z,48.5
2018-02-12T13:02:20.400Z,48.1
2018-02-12T13:03:21.797Z,48.4
2018-02-12T13:04:23.215Z,48.1
2018-02-12T13:05:24.731Z,48.3
2018-02-12T13:06:26.255Z,48.2
2018-02-12T13:07:27.612Z,48.2
2018-02-12T13:08:29.038Z,48.0
2018-02-12T13:09:30.470Z,48.6
2018-02-12T13:10:31.858Z,48.4
2018-02-12T13:11:33.270Z,48.6
2018-02-12T13:12:34.635Z,48.4
2018-02-12T13:13:36.014Z,48.4
2018-02-12T13:14:37.449Z,48.6
2018-02-12T13:15:38.747Z,48.5
2018-02-12T13:16:40.131Z,48.2
2018-02-12T13:17:41.454Z,48.1
2018-02-12T13:18:42.904Z,48.2
2018-02-12T13:19:44.296Z,48.2
2018-02-12T13:20:45.693Z,48.4
2018-02-12T13:21:47.074Z,48.6
2018-02-12T13:22:48.450Z,48.3
2018-02-12T13:23:49.861Z,48.3
2018-02-12T13:24:51.306Z,48.2
2018-02-12T13:25:52.710Z,48.6
2018-02-12T13:26:54.140Z,48.5
2018-02-12T13:27:55.527Z,48.5
2018-02-12T13:28:56.978Z,48.2
2018-02-12T13:29:58.332Z,48.2
2018-02-12T13:30:59.714Z,48.3
2018-02-12T13:32:01.127Z,48.1
2018-02-12T13:33:02.477Z,48.3
2018-02-12T13:34:03.857Z,48.3
2018-02-12T13:35:05.295Z,48.3
2018-02-12T13:36:06.648Z,48.1
2018-02-12T13:37:08.098Z,47.8
2018-02-12T13:38:09.453Z,47.9